sensor_id;sensor_type;location;lat;lon;timestamp;temperature;humidity
3846;DHT22;1938;50.812;7.738;2023-06-14T00:00:39;16.30;99.90
3846;DHT22;1938;50.812;7.738;2023-06-14T00:03:06;16.30;99.90
3846;DHT22;1938;50.812;7.738;2023-06-14T00:05:33;16.20;99.90
3846;DHT22;1938;50.812;7.738;2023-06-14T00:08:04;16.10;99.90
3846;DHT22;1938;50.812;7.738;2023-06-14T00:10:32;16.10;99.90
3846;DHT22;1938;50.812;7.738;2023-06-14T00:13:01;16.10;99.90
3846;DHT22;1938;50.812;7.738;2023-06-14T00:15:26;16.10;99.90
3846;DHT22;1938;50.812;7.738;2023-06-14T00:17:52;16.10;99.90
3846;DHT22;1938;50.812;7.738;2023-06-14T00:20:18;16.10;99.90
3846;DHT22;1938;50.812;7.738;2023-06-14T00:22:43;16.20;99.90
3846;DHT22;1938;50.812;7.738;2023-06-14T00:25:10;16.20;99.90
3846;DHT22;1938;50.812;7.738;2023-06-14T00:27:36;16.20;99.90
3846;DHT22;1938;50.812;7.738;2023-06-14T00:30:02;16.30;99.90
3846;DHT22;1938;50.812;7.738;2023-06-14T00:32:28;16.30;99.90
3846;DHT22;1938;50.812;7.738;2023-06-14T00:34:53;16.30;99.90
3846;DHT22;1938;50.812;7.738;2023-06-14T00:37:19;16.30;99.90
3846;DHT22;1938;50.812;7.738;2023-06-14T00:39:45;16.30;99.90
3846;DHT22;1938;50.812;7.738;2023-06-14T00:42:10;16.40;99.90
3846;DHT22;1938;50.812;7.738;2023-06-14T00:44:36;16.40;99.90
3846;DHT22;1938;50.812;7.738;2023-06-14T00:47:01;16.40;99.90
3846;DHT22;1938;50.812;7.738;2023-06-14T00:49:29;16.40;99.90
3846;DHT22;1938;50.812;7.738;2023-06-14T00:51:55;16.40;99.90
3846;DHT22;1938;50.812;7.738;2023-06-14T00:54:20;16.40;99.90
3846;DHT22;1938;50.812;7.738;2023-06-14T00:56:46;16.40;99.90
3846;DHT22;1938;50.812;7.738;2023-06-14T00:59:13;16.30;99.90
3846;DHT22;1938;50.812;7.738;2023-06-14T01:01:39;16.30;99.90
3846;DHT22;1938;50.812;7.738;2023-06-14T01:04:05;16.30;99.90
3846;DHT22;1938;50.812;7.738;2023-06-14T01:06:49;16.20;99.90
3846;DHT22;1938;50.812;7.738;2023-06-14T01:12:07;16.20;99.90
3846;DHT22;1938;50.812;7.738;2023-06-14T01:14:36;16.10;99.90
3846;DHT22;1938;50.812;7.738;2023-06-14T01:17:02;16.10;99.90
3846;DHT22;1938;50.812;7.738;2023-06-14T01:19:27;16.10;99.90
3846;DHT22;1938;50.812;7.738;2023-06-14T01:21:57;16.10;99.90
3846;DHT22;1938;50.812;7.738;2023-06-14T01:24:25;16.10;99.90
3846;DHT22;1938;50.812;7.738;2023-06-14T01:26:52;16.10;99.90
3846;DHT22;1938;50.812;7.738;2023-06-14T01:29:24;16.10;99.90
3846;DHT22;1938;50.812;7.738;2023-06-14T01:31:50;16.00;99.90
3846;DHT22;1938;50.812;7.738;2023-06-14T01:34:16;15.90;99.90
3846;DHT22;1938;50.812;7.738;2023-06-14T01:36:44;15.90;99.90
3846;DHT22;1938;50.812;7.738;2023-06-14T01:39:15;15.90;99.90
3846;DHT22;1938;50.812;7.738;2023-06-14T01:41:42;15.80;99.90
3846;DHT22;1938;50.812;7.738;2023-06-14T01:44:08;15.80;99.90
3846;DHT22;1938;50.812;7.738;2023-06-14T01:46:35;15.80;99.90
3846;DHT22;1938;50.812;7.738;2023-06-14T01:49:01;15.80;99.90
3846;DHT22;1938;50.812;7.738;2023-06-14T01:51:27;15.80;99.90
3846;DHT22;1938;50.812;7.738;2023-06-14T01:53:53;15.80;99.90
3846;DHT22;1938;50.812;7.738;2023-06-14T01:56:18;15.70;99.90
3846;DHT22;1938;50.812;7.738;2023-06-14T01:58:44;15.80;99.90
3846;DHT22;1938;50.812;7.738;2023-06-14T02:01:09;15.70;99.90
3846;DHT22;1938;50.812;7.738;2023-06-14T02:03:37;15.70;99.90
3846;DHT22;1938;50.812;7.738;2023-06-14T02:06:04;15.80;99.90
3846;DHT22;1938;50.812;7.738;2023-06-14T02:08:29;15.70;99.90
3846;DHT22;1938;50.812;7.738;2023-06-14T02:10:55;15.60;99.90
3846;DHT22;1938;50.812;7.738;2023-06-14T02:13:21;15.60;99.90
3846;DHT22;1938;50.812;7.738;2023-06-14T02:15:46;15.60;99.90
3846;DHT22;1938;50.812;7.738;2023-06-14T02:18:13;15.60;99.90
3846;DHT22;1938;50.812;7.738;2023-06-14T02:20:39;15.60;99.90
3846;DHT22;1938;50.812;7.738;2023-06-14T02:23:04;15.50;99.90
3846;DHT22;1938;50.812;7.738;2023-06-14T02:25:33;15.50;99.90
3846;DHT22;1938;50.812;7.738;2023-06-14T02:27:58;15.40;99.90
3846;DHT22;1938;50.812;7.738;2023-06-14T02:30:24;15.40;99.90
3846;DHT22;1938;50.812;7.738;2023-06-14T02:32:49;15.40;99.90
3846;DHT22;1938;50.812;7.738;2023-06-14T02:35:16;15.40;99.90
3846;DHT22;1938;50.812;7.738;2023-06-14T02:37:41;15.30;99.90
3846;DHT22;1938;50.812;7.738;2023-06-14T02:40:08;15.30;99.90
3846;DHT22;1938;50.812;7.738;2023-06-14T02:42:34;15.30;99.90
3846;DHT22;1938;50.812;7.738;2023-06-14T02:44:59;15.30;99.90
3846;DHT22;1938;50.812;7.738;2023-06-14T02:47:25;15.20;99.90
3846;DHT22;1938;50.812;7.738;2023-06-14T02:49:51;15.20;99.90
3846;DHT22;1938;50.812;7.738;2023-06-14T02:52:18;15.20;99.90
3846;DHT22;1938;50.812;7.738;2023-06-14T02:54:43;15.10;99.90
3846;DHT22;1938;50.812;7.738;2023-06-14T02:57:09;15.10;99.90
3846;DHT22;1938;50.812;7.738;2023-06-14T02:59:35;15.00;99.90
3846;DHT22;1938;50.812;7.738;2023-06-14T03:02:01;15.00;99.90
3846;DHT22;1938;50.812;7.738;2023-06-14T03:04:27;14.90;99.90
3846;DHT22;1938;50.812;7.738;2023-06-14T03:06:54;14.90;99.90
3846;DHT22;1938;50.812;7.738;2023-06-14T03:09:20;14.90;99.90
3846;DHT22;1938;50.812;7.738;2023-06-14T03:11:46;14.80;99.90
3846;DHT22;1938;50.812;7.738;2023-06-14T03:14:12;14.80;99.90
3846;DHT22;1938;50.812;7.738;2023-06-14T03:16:38;14.80;99.90
3846;DHT22;1938;50.812;7.738;2023-06-14T03:19:04;14.80;99.90
3846;DHT22;1938;50.812;7.738;2023-06-14T03:21:30;14.90;99.90
3846;DHT22;1938;50.812;7.738;2023-06-14T03:23:55;14.90;99.90
3846;DHT22;1938;50.812;7.738;2023-06-14T03:26:21;14.90;99.90
3846;DHT22;1938;50.812;7.738;2023-06-14T03:28:48;14.90;99.90
3846;DHT22;1938;50.812;7.738;2023-06-14T03:31:16;15.00;99.90
3846;DHT22;1938;50.812;7.738;2023-06-14T03:33:42;15.00;99.90
3846;DHT22;1938;50.812;7.738;2023-06-14T03:36:07;14.90;99.90
3846;DHT22;1938;50.812;7.738;2023-06-14T03:38:34;15.00;99.90
3846;DHT22;1938;50.812;7.738;2023-06-14T03:41:00;15.00;99.90
3846;DHT22;1938;50.812;7.738;2023-06-14T03:43:26;15.00;99.90
3846;DHT22;1938;50.812;7.738;2023-06-14T03:45:52;15.10;99.90
3846;DHT22;1938;50.812;7.738;2023-06-14T03:48:17;15.20;99.90
3846;DHT22;1938;50.812;7.738;2023-06-14T03:50:43;15.20;99.90
3846;DHT22;1938;50.812;7.738;2023-06-14T03:53:10;15.30;99.90
3846;DHT22;1938;50.812;7.738;2023-06-14T03:55:35;15.50;99.90
3846;DHT22;1938;50.812;7.738;2023-06-14T03:58:01;16.60;99.90
3846;DHT22;1938;50.812;7.738;2023-06-14T04:00:27;17.90;99.90
3846;DHT22;1938;50.812;7.738;2023-06-14T04:02:53;19.00;99.90
3846;DHT22;1938;50.812;7.738;2023-06-14T04:05:20;19.70;99.90
3846;DHT22;1938;50.812;7.738;2023-06-14T04:07:46;20.50;99.90
3846;DHT22;1938;50.812;7.738;2023-06-14T04:10:15;21.40;99.90
3846;DHT22;1938;50.812;7.738;2023-06-14T04:12:41;22.30;99.90
3846;DHT22;1938;50.812;7.738;2023-06-14T04:15:07;22.70;99.90
3846;DHT22;1938;50.812;7.738;2023-06-14T04:17:34;23.00;99.90
3846;DHT22;1938;50.812;7.738;2023-06-14T04:20:00;23.00;99.90
3846;DHT22;1938;50.812;7.738;2023-06-14T04:22:26;23.80;99.90
3846;DHT22;1938;50.812;7.738;2023-06-14T04:24:54;23.40;99.90
3846;DHT22;1938;50.812;7.738;2023-06-14T04:27:25;24.90;99.90
3846;DHT22;1938;50.812;7.738;2023-06-14T04:29:52;25.90;99.90
3846;DHT22;1938;50.812;7.738;2023-06-14T04:32:25;26.10;99.90
3846;DHT22;1938;50.812;7.738;2023-06-14T04:34:53;26.50;99.90
3846;DHT22;1938;50.812;7.738;2023-06-14T04:37:20;27.20;99.90
3846;DHT22;1938;50.812;7.738;2023-06-14T04:39:47;27.20;99.90
3846;DHT22;1938;50.812;7.738;2023-06-14T04:42:13;28.10;99.90
3846;DHT22;1938;50.812;7.738;2023-06-14T04:44:40;28.60;99.90
3846;DHT22;1938;50.812;7.738;2023-06-14T04:47:05;28.90;99.90
3846;DHT22;1938;50.812;7.738;2023-06-14T04:49:32;30.30;99.90
3846;DHT22;1938;50.812;7.738;2023-06-14T04:51:59;29.70;99.90
3846;DHT22;1938;50.812;7.738;2023-06-14T04:54:26;29.90;99.90
3846;DHT22;1938;50.812;7.738;2023-06-14T04:56:52;30.30;99.90
3846;DHT22;1938;50.812;7.738;2023-06-14T04:59:21;31.60;99.90
3846;DHT22;1938;50.812;7.738;2023-06-14T05:01:50;32.20;99.90
3846;DHT22;1938;50.812;7.738;2023-06-14T05:04:16;32.50;99.90
3846;DHT22;1938;50.812;7.738;2023-06-14T05:06:43;31.90;99.90
3846;DHT22;1938;50.812;7.738;2023-06-14T05:09:14;31.90;99.90
3846;DHT22;1938;50.812;7.738;2023-06-14T05:11:40;32.10;99.90
3846;DHT22;1938;50.812;7.738;2023-06-14T05:14:10;34.20;99.90
3846;DHT22;1938;50.812;7.738;2023-06-14T05:16:36;35.00;99.90
3846;DHT22;1938;50.812;7.738;2023-06-14T05:19:03;36.10;99.90
3846;DHT22;1938;50.812;7.738;2023-06-14T05:21:29;36.30;99.90
3846;DHT22;1938;50.812;7.738;2023-06-14T05:23:55;35.20;99.90
3846;DHT22;1938;50.812;7.738;2023-06-14T05:26:21;35.50;99.90
3846;DHT22;1938;50.812;7.738;2023-06-14T05:28:48;36.30;99.90
3846;DHT22;1938;50.812;7.738;2023-06-14T05:31:15;36.80;99.90
3846;DHT22;1938;50.812;7.738;2023-06-14T05:33:40;37.90;99.90
3846;DHT22;1938;50.812;7.738;2023-06-14T05:36:06;39.50;99.90
3846;DHT22;1938;50.812;7.738;2023-06-14T05:38:31;39.20;99.90
3846;DHT22;1938;50.812;7.738;2023-06-14T05:40:57;39.30;99.90
3846;DHT22;1938;50.812;7.738;2023-06-14T05:43:22;38.80;99.90
3846;DHT22;1938;50.812;7.738;2023-06-14T05:45:48;39.00;99.90
3846;DHT22;1938;50.812;7.738;2023-06-14T05:48:14;38.50;99.90
3846;DHT22;1938;50.812;7.738;2023-06-14T05:50:39;37.70;99.90
3846;DHT22;1938;50.812;7.738;2023-06-14T05:53:05;37.60;99.90
3846;DHT22;1938;50.812;7.738;2023-06-14T05:55:30;38.30;99.90
3846;DHT22;1938;50.812;7.738;2023-06-14T05:57:56;39.20;99.90
3846;DHT22;1938;50.812;7.738;2023-06-14T06:00:23;37.50;99.90
3846;DHT22;1938;50.812;7.738;2023-06-14T06:02:48;35.40;99.90
3846;DHT22;1938;50.812;7.738;2023-06-14T06:05:14;36.60;99.90
3846;DHT22;1938;50.812;7.738;2023-06-14T06:07:41;37.10;99.90
3846;DHT22;1938;50.812;7.738;2023-06-14T06:10:07;35.40;99.90
3846;DHT22;1938;50.812;7.738;2023-06-14T06:12:33;35.90;99.90
3846;DHT22;1938;50.812;7.738;2023-06-14T06:14:59;37.30;99.90
3846;DHT22;1938;50.812;7.738;2023-06-14T06:17:25;35.50;99.90
3846;DHT22;1938;50.812;7.738;2023-06-14T06:19:51;36.00;99.90
3846;DHT22;1938;50.812;7.738;2023-06-14T06:22:16;36.70;99.90
3846;DHT22;1938;50.812;7.738;2023-06-14T06:24:42;36.00;99.90
3846;DHT22;1938;50.812;7.738;2023-06-14T06:27:08;34.60;99.90
3846;DHT22;1938;50.812;7.738;2023-06-14T06:29:34;34.20;99.90
3846;DHT22;1938;50.812;7.738;2023-06-14T06:32:00;32.50;99.90
3846;DHT22;1938;50.812;7.738;2023-06-14T06:34:26;31.90;99.90
3846;DHT22;1938;50.812;7.738;2023-06-14T06:36:51;30.90;99.90
3846;DHT22;1938;50.812;7.738;2023-06-14T06:39:18;30.80;99.90
3846;DHT22;1938;50.812;7.738;2023-06-14T06:41:43;29.70;99.90
3846;DHT22;1938;50.812;7.738;2023-06-14T06:44:09;30.40;99.90
3846;DHT22;1938;50.812;7.738;2023-06-14T06:46:36;30.00;99.90
3846;DHT22;1938;50.812;7.738;2023-06-14T06:49:05;29.60;99.90
3846;DHT22;1938;50.812;7.738;2023-06-14T06:51:31;29.40;99.90
3846;DHT22;1938;50.812;7.738;2023-06-14T06:53:56;28.80;99.90
3846;DHT22;1938;50.812;7.738;2023-06-14T06:56:22;29.90;99.90
3846;DHT22;1938;50.812;7.738;2023-06-14T06:58:51;29.90;99.90
3846;DHT22;1938;50.812;7.738;2023-06-14T07:01:17;30.40;99.90
3846;DHT22;1938;50.812;7.738;2023-06-14T07:03:44;29.20;99.90
3846;DHT22;1938;50.812;7.738;2023-06-14T07:06:09;30.10;99.90
3846;DHT22;1938;50.812;7.738;2023-06-14T07:08:35;29.00;99.90
3846;DHT22;1938;50.812;7.738;2023-06-14T07:11:01;29.10;99.90
3846;DHT22;1938;50.812;7.738;2023-06-14T07:13:27;29.70;99.90
3846;DHT22;1938;50.812;7.738;2023-06-14T07:15:58;30.80;99.90
3846;DHT22;1938;50.812;7.738;2023-06-14T07:18:24;31.10;99.90
3846;DHT22;1938;50.812;7.738;2023-06-14T07:20:50;30.60;99.90
3846;DHT22;1938;50.812;7.738;2023-06-14T07:23:15;29.40;99.90
3846;DHT22;1938;50.812;7.738;2023-06-14T07:25:41;28.70;99.90
3846;DHT22;1938;50.812;7.738;2023-06-14T07:28:06;28.10;99.90
3846;DHT22;1938;50.812;7.738;2023-06-14T07:30:32;29.40;99.90
3846;DHT22;1938;50.812;7.738;2023-06-14T07:32:58;29.70;99.90
3846;DHT22;1938;50.812;7.738;2023-06-14T07:35:23;30.50;99.90
3846;DHT22;1938;50.812;7.738;2023-06-14T07:37:49;29.80;99.90
3846;DHT22;1938;50.812;7.738;2023-06-14T07:40:15;29.80;99.90
3846;DHT22;1938;50.812;7.738;2023-06-14T07:42:40;30.70;99.90
3846;DHT22;1938;50.812;7.738;2023-06-14T07:45:06;32.10;99.90
3846;DHT22;1938;50.812;7.738;2023-06-14T07:47:32;31.20;99.90
3846;DHT22;1938;50.812;7.738;2023-06-14T07:49:58;32.10;99.90
3846;DHT22;1938;50.812;7.738;2023-06-14T07:52:24;33.90;99.90
3846;DHT22;1938;50.812;7.738;2023-06-14T07:54:50;35.00;99.90
3846;DHT22;1938;50.812;7.738;2023-06-14T07:57:15;33.40;99.90
3846;DHT22;1938;50.812;7.738;2023-06-14T07:59:41;34.60;99.90
3846;DHT22;1938;50.812;7.738;2023-06-14T08:02:06;33.60;99.90
3846;DHT22;1938;50.812;7.738;2023-06-14T08:04:32;33.20;99.90
3846;DHT22;1938;50.812;7.738;2023-06-14T08:06:59;32.60;99.90
3846;DHT22;1938;50.812;7.738;2023-06-14T08:09:26;34.40;99.90
3846;DHT22;1938;50.812;7.738;2023-06-14T08:11:53;34.50;99.90
3846;DHT22;1938;50.812;7.738;2023-06-14T08:14:18;32.40;99.90
3846;DHT22;1938;50.812;7.738;2023-06-14T08:16:44;33.40;99.90
3846;DHT22;1938;50.812;7.738;2023-06-14T08:19:09;33.50;99.90
3846;DHT22;1938;50.812;7.738;2023-06-14T08:21:35;33.70;99.90
3846;DHT22;1938;50.812;7.738;2023-06-14T08:24:02;33.80;99.90
3846;DHT22;1938;50.812;7.738;2023-06-14T08:26:27;32.50;99.90
3846;DHT22;1938;50.812;7.738;2023-06-14T08:28:57;32.70;99.90
3846;DHT22;1938;50.812;7.738;2023-06-14T08:31:23;32.10;99.90
3846;DHT22;1938;50.812;7.738;2023-06-14T08:33:49;30.90;99.90
3846;DHT22;1938;50.812;7.738;2023-06-14T08:36:15;30.90;99.90
3846;DHT22;1938;50.812;7.738;2023-06-14T08:38:41;32.60;99.90
3846;DHT22;1938;50.812;7.738;2023-06-14T08:41:07;33.30;99.90
3846;DHT22;1938;50.812;7.738;2023-06-14T08:43:33;31.40;99.90
3846;DHT22;1938;50.812;7.738;2023-06-14T08:46:02;30.30;99.90
3846;DHT22;1938;50.812;7.738;2023-06-14T08:48:28;29.20;99.90
3846;DHT22;1938;50.812;7.738;2023-06-14T08:50:56;30.10;99.90
3846;DHT22;1938;50.812;7.738;2023-06-14T08:53:28;28.60;99.90
3846;DHT22;1938;50.812;7.738;2023-06-14T08:55:58;28.50;99.90
3846;DHT22;1938;50.812;7.738;2023-06-14T08:58:27;28.00;99.90
3846;DHT22;1938;50.812;7.738;2023-06-14T09:00:55;28.80;99.90
3846;DHT22;1938;50.812;7.738;2023-06-14T09:03:21;29.30;99.90
3846;DHT22;1938;50.812;7.738;2023-06-14T09:05:47;29.00;99.90
3846;DHT22;1938;50.812;7.738;2023-06-14T09:08:13;28.70;99.90
3846;DHT22;1938;50.812;7.738;2023-06-14T09:10:40;28.10;99.90
3846;DHT22;1938;50.812;7.738;2023-06-14T09:13:06;27.80;99.90
3846;DHT22;1938;50.812;7.738;2023-06-14T09:15:32;28.20;99.90
3846;DHT22;1938;50.812;7.738;2023-06-14T09:17:58;28.70;99.90
3846;DHT22;1938;50.812;7.738;2023-06-14T09:20:26;27.10;99.90
3846;DHT22;1938;50.812;7.738;2023-06-14T09:22:51;26.00;99.90
3846;DHT22;1938;50.812;7.738;2023-06-14T09:25:18;25.70;99.90
3846;DHT22;1938;50.812;7.738;2023-06-14T09:27:47;24.60;99.90
3846;DHT22;1938;50.812;7.738;2023-06-14T09:30:12;24.20;99.90
3846;DHT22;1938;50.812;7.738;2023-06-14T09:32:41;23.80;99.90
3846;DHT22;1938;50.812;7.738;2023-06-14T09:35:08;23.60;99.90
3846;DHT22;1938;50.812;7.738;2023-06-14T09:37:34;23.60;99.90
3846;DHT22;1938;50.812;7.738;2023-06-14T09:40:01;23.90;99.90
3846;DHT22;1938;50.812;7.738;2023-06-14T09:42:28;24.00;99.90
3846;DHT22;1938;50.812;7.738;2023-06-14T09:44:56;23.20;99.90
3846;DHT22;1938;50.812;7.738;2023-06-14T09:47:22;23.00;99.90
3846;DHT22;1938;50.812;7.738;2023-06-14T09:49:49;23.00;99.90
3846;DHT22;1938;50.812;7.738;2023-06-14T09:52:21;23.10;99.90
3846;DHT22;1938;50.812;7.738;2023-06-14T09:54:47;23.20;99.90
3846;DHT22;1938;50.812;7.738;2023-06-14T09:57:21;23.40;99.90
3846;DHT22;1938;50.812;7.738;2023-06-14T09:59:48;22.70;99.90
3846;DHT22;1938;50.812;7.738;2023-06-14T10:07:30;22.00;99.90
3846;DHT22;1938;50.812;7.738;2023-06-14T10:09:58;22.20;99.90
3846;DHT22;1938;50.812;7.738;2023-06-14T10:12:25;22.60;99.90
3846;DHT22;1938;50.812;7.738;2023-06-14T10:14:51;22.50;99.90
3846;DHT22;1938;50.812;7.738;2023-06-14T10:17:42;22.60;99.90
3846;DHT22;1938;50.812;7.738;2023-06-14T10:20:26;22.70;99.90
3846;DHT22;1938;50.812;7.738;2023-06-14T10:23:06;22.70;99.90
3846;DHT22;1938;50.812;7.738;2023-06-14T10:25:33;23.00;99.90
3846;DHT22;1938;50.812;7.738;2023-06-14T10:28:19;23.30;99.90
3846;DHT22;1938;50.812;7.738;2023-06-14T10:31:06;23.00;99.90
3846;DHT22;1938;50.812;7.738;2023-06-14T10:33:34;23.00;99.90
3846;DHT22;1938;50.812;7.738;2023-06-14T10:36:09;22.50;99.90
3846;DHT22;1938;50.812;7.738;2023-06-14T10:38:36;22.60;99.90
3846;DHT22;1938;50.812;7.738;2023-06-14T10:41:04;22.20;99.90
3846;DHT22;1938;50.812;7.738;2023-06-14T10:43:29;22.30;99.90
3846;DHT22;1938;50.812;7.738;2023-06-14T10:46:18;22.50;99.90
3846;DHT22;1938;50.812;7.738;2023-06-14T10:48:48;22.20;99.90
3846;DHT22;1938;50.812;7.738;2023-06-14T10:51:20;21.70;99.90
3846;DHT22;1938;50.812;7.738;2023-06-14T10:53:50;21.40;99.90
3846;DHT22;1938;50.812;7.738;2023-06-14T10:56:33;21.40;99.90
3846;DHT22;1938;50.812;7.738;2023-06-14T10:58:59;21.70;99.90
3846;DHT22;1938;50.812;7.738;2023-06-14T11:01:38;21.90;99.90
3846;DHT22;1938;50.812;7.738;2023-06-14T11:04:09;22.10;99.90
3846;DHT22;1938;50.812;7.738;2023-06-14T11:06:50;22.20;99.90
3846;DHT22;1938;50.812;7.738;2023-06-14T11:09:35;22.10;99.90
3846;DHT22;1938;50.812;7.738;2023-06-14T11:12:09;22.30;99.90
3846;DHT22;1938;50.812;7.738;2023-06-14T11:14:36;22.60;99.90
3846;DHT22;1938;50.812;7.738;2023-06-14T11:17:01;22.40;99.90
3846;DHT22;1938;50.812;7.738;2023-06-14T11:19:27;22.20;99.90
3846;DHT22;1938;50.812;7.738;2023-06-14T11:21:54;22.50;99.90
3846;DHT22;1938;50.812;7.738;2023-06-14T11:24:20;22.90;99.90
3846;DHT22;1938;50.812;7.738;2023-06-14T11:26:47;23.00;99.90
3846;DHT22;1938;50.812;7.738;2023-06-14T11:29:14;23.20;99.90
3846;DHT22;1938;50.812;7.738;2023-06-14T11:31:43;22.80;99.90
3846;DHT22;1938;50.812;7.738;2023-06-14T11:34:10;23.10;99.90
3846;DHT22;1938;50.812;7.738;2023-06-14T11:36:37;23.00;99.90
3846;DHT22;1938;50.812;7.738;2023-06-14T11:39:04;23.00;99.90
3846;DHT22;1938;50.812;7.738;2023-06-14T11:41:40;23.10;99.90
3846;DHT22;1938;50.812;7.738;2023-06-14T11:44:06;22.90;99.90
3846;DHT22;1938;50.812;7.738;2023-06-14T11:46:32;23.10;99.90
3846;DHT22;1938;50.812;7.738;2023-06-14T11:48:58;23.00;99.90
3846;DHT22;1938;50.812;7.738;2023-06-14T11:51:24;23.20;99.90
3846;DHT22;1938;50.812;7.738;2023-06-14T11:53:50;23.30;99.90
3846;DHT22;1938;50.812;7.738;2023-06-14T11:56:16;23.40;99.90
3846;DHT22;1938;50.812;7.738;2023-06-14T11:58:45;23.10;99.90
3846;DHT22;1938;50.812;7.738;2023-06-14T12:01:16;23.30;99.90
3846;DHT22;1938;50.812;7.738;2023-06-14T12:03:50;23.40;99.90
3846;DHT22;1938;50.812;7.738;2023-06-14T12:06:16;22.90;99.90
3846;DHT22;1938;50.812;7.738;2023-06-14T12:08:50;23.10;99.90
3846;DHT22;1938;50.812;7.738;2023-06-14T12:11:16;23.20;99.90
3846;DHT22;1938;50.812;7.738;2023-06-14T12:13:43;23.20;99.90
3846;DHT22;1938;50.812;7.738;2023-06-14T12:16:09;22.70;99.90
3846;DHT22;1938;50.812;7.738;2023-06-14T12:18:36;22.30;99.90
3846;DHT22;1938;50.812;7.738;2023-06-14T12:21:07;22.40;99.90
3846;DHT22;1938;50.812;7.738;2023-06-14T12:23:49;22.40;99.90
3846;DHT22;1938;50.812;7.738;2023-06-14T12:26:16;21.80;99.90
3846;DHT22;1938;50.812;7.738;2023-06-14T12:28:44;21.80;99.90
3846;DHT22;1938;50.812;7.738;2023-06-14T12:31:12;22.00;99.90
3846;DHT22;1938;50.812;7.738;2023-06-14T12:33:38;22.10;99.90
3846;DHT22;1938;50.812;7.738;2023-06-14T12:36:05;21.70;99.90
3846;DHT22;1938;50.812;7.738;2023-06-14T12:38:32;21.40;99.90
3846;DHT22;1938;50.812;7.738;2023-06-14T12:40:57;21.50;99.90
3846;DHT22;1938;50.812;7.738;2023-06-14T12:43:23;21.90;99.90
3846;DHT22;1938;50.812;7.738;2023-06-14T12:45:49;22.30;99.90
3846;DHT22;1938;50.812;7.738;2023-06-14T12:48:15;22.60;99.90
3846;DHT22;1938;50.812;7.738;2023-06-14T12:50:41;22.30;99.90
3846;DHT22;1938;50.812;7.738;2023-06-14T12:53:06;22.40;99.90
3846;DHT22;1938;50.812;7.738;2023-06-14T12:55:32;22.60;99.90
3846;DHT22;1938;50.812;7.738;2023-06-14T12:57:58;22.60;99.90
3846;DHT22;1938;50.812;7.738;2023-06-14T13:00:24;22.80;99.90
3846;DHT22;1938;50.812;7.738;2023-06-14T13:02:51;23.00;99.90
3846;DHT22;1938;50.812;7.738;2023-06-14T13:05:17;23.20;99.90
3846;DHT22;1938;50.812;7.738;2023-06-14T13:07:43;22.80;99.90
3846;DHT22;1938;50.812;7.738;2023-06-14T13:10:10;22.50;99.90
3846;DHT22;1938;50.812;7.738;2023-06-14T13:12:35;22.30;99.90
3846;DHT22;1938;50.812;7.738;2023-06-14T13:15:01;22.60;99.90
3846;DHT22;1938;50.812;7.738;2023-06-14T13:17:26;22.50;99.90
3846;DHT22;1938;50.812;7.738;2023-06-14T13:19:52;22.70;99.90
3846;DHT22;1938;50.812;7.738;2023-06-14T13:22:18;22.60;99.90
3846;DHT22;1938;50.812;7.738;2023-06-14T13:24:43;22.20;99.90
3846;DHT22;1938;50.812;7.738;2023-06-14T13:27:09;21.90;99.90
3846;DHT22;1938;50.812;7.738;2023-06-14T13:29:36;21.90;99.90
3846;DHT22;1938;50.812;7.738;2023-06-14T13:32:03;22.00;99.90
3846;DHT22;1938;50.812;7.738;2023-06-14T13:34:29;22.10;99.90
3846;DHT22;1938;50.812;7.738;2023-06-14T13:36:54;22.00;99.90
3846;DHT22;1938;50.812;7.738;2023-06-14T13:39:20;22.20;99.90
3846;DHT22;1938;50.812;7.738;2023-06-14T13:41:46;22.00;99.90
3846;DHT22;1938;50.812;7.738;2023-06-14T13:44:11;22.10;99.90
3846;DHT22;1938;50.812;7.738;2023-06-14T13:46:39;22.20;99.90
3846;DHT22;1938;50.812;7.738;2023-06-14T13:49:05;22.30;99.90
3846;DHT22;1938;50.812;7.738;2023-06-14T13:51:31;22.70;99.90
3846;DHT22;1938;50.812;7.738;2023-06-14T13:53:57;22.80;99.90
3846;DHT22;1938;50.812;7.738;2023-06-14T13:56:23;22.90;99.90
3846;DHT22;1938;50.812;7.738;2023-06-14T13:58:49;23.10;99.90
3846;DHT22;1938;50.812;7.738;2023-06-14T14:01:15;23.20;99.90
3846;DHT22;1938;50.812;7.738;2023-06-14T14:03:43;23.50;99.90
3846;DHT22;1938;50.812;7.738;2023-06-14T14:06:10;23.40;99.90
3846;DHT22;1938;50.812;7.738;2023-06-14T14:08:36;23.50;99.90
3846;DHT22;1938;50.812;7.738;2023-06-14T14:11:02;23.70;99.90
3846;DHT22;1938;50.812;7.738;2023-06-14T14:13:27;23.60;99.90
3846;DHT22;1938;50.812;7.738;2023-06-14T14:15:53;23.60;99.90
3846;DHT22;1938;50.812;7.738;2023-06-14T14:18:19;23.60;99.90
3846;DHT22;1938;50.812;7.738;2023-06-14T14:20:46;23.10;99.90
3846;DHT22;1938;50.812;7.738;2023-06-14T14:23:12;23.10;99.90
3846;DHT22;1938;50.812;7.738;2023-06-14T14:25:37;23.00;99.90
3846;DHT22;1938;50.812;7.738;2023-06-14T14:28:03;23.00;99.90
3846;DHT22;1938;50.812;7.738;2023-06-14T14:30:28;22.90;99.90
3846;DHT22;1938;50.812;7.738;2023-06-14T14:32:54;22.80;99.90
3846;DHT22;1938;50.812;7.738;2023-06-14T14:35:19;22.50;99.90
3846;DHT22;1938;50.812;7.738;2023-06-14T14:37:45;22.40;99.90
3846;DHT22;1938;50.812;7.738;2023-06-14T14:40:11;22.40;99.90
3846;DHT22;1938;50.812;7.738;2023-06-14T14:42:37;22.40;99.90
3846;DHT22;1938;50.812;7.738;2023-06-14T14:45:03;22.60;99.90
3846;DHT22;1938;50.812;7.738;2023-06-14T14:47:29;22.80;99.90
3846;DHT22;1938;50.812;7.738;2023-06-14T14:49:54;22.80;99.90
3846;DHT22;1938;50.812;7.738;2023-06-14T14:52:20;22.80;99.90
3846;DHT22;1938;50.812;7.738;2023-06-14T14:54:47;22.40;99.90
3846;DHT22;1938;50.812;7.738;2023-06-14T14:57:12;22.00;99.90
3846;DHT22;1938;50.812;7.738;2023-06-14T14:59:39;22.10;99.90
3846;DHT22;1938;50.812;7.738;2023-06-14T15:02:05;22.20;99.90
3846;DHT22;1938;50.812;7.738;2023-06-14T15:04:30;22.50;99.90
3846;DHT22;1938;50.812;7.738;2023-06-14T15:06:57;22.80;99.90
3846;DHT22;1938;50.812;7.738;2023-06-14T15:09:22;23.00;99.90
3846;DHT22;1938;50.812;7.738;2023-06-14T15:11:48;23.20;99.90
3846;DHT22;1938;50.812;7.738;2023-06-14T15:14:13;23.40;99.90
3846;DHT22;1938;50.812;7.738;2023-06-14T15:16:40;23.20;99.90
3846;DHT22;1938;50.812;7.738;2023-06-14T15:19:05;22.90;99.90
3846;DHT22;1938;50.812;7.738;2023-06-14T15:21:31;22.50;99.90
3846;DHT22;1938;50.812;7.738;2023-06-14T15:23:56;22.50;99.90
3846;DHT22;1938;50.812;7.738;2023-06-14T15:26:22;22.70;99.90
3846;DHT22;1938;50.812;7.738;2023-06-14T15:28:50;22.80;99.90
3846;DHT22;1938;50.812;7.738;2023-06-14T15:31:15;22.90;99.90
3846;DHT22;1938;50.812;7.738;2023-06-14T15:33:41;23.00;99.90
3846;DHT22;1938;50.812;7.738;2023-06-14T15:36:06;23.30;99.90
3846;DHT22;1938;50.812;7.738;2023-06-14T15:38:34;23.40;99.90
3846;DHT22;1938;50.812;7.738;2023-06-14T15:41:00;23.60;99.90
3846;DHT22;1938;50.812;7.738;2023-06-14T15:43:26;23.30;99.90
3846;DHT22;1938;50.812;7.738;2023-06-14T15:45:51;23.10;99.90
3846;DHT22;1938;50.812;7.738;2023-06-14T15:48:17;22.80;99.90
3846;DHT22;1938;50.812;7.738;2023-06-14T15:50:42;22.50;99.90
3846;DHT22;1938;50.812;7.738;2023-06-14T15:53:08;22.30;99.90
3846;DHT22;1938;50.812;7.738;2023-06-14T15:55:47;22.00;99.90
3846;DHT22;1938;50.812;7.738;2023-06-14T15:58:12;22.00;99.90
3846;DHT22;1938;50.812;7.738;2023-06-14T16:00:39;22.20;99.90
3846;DHT22;1938;50.812;7.738;2023-06-14T16:03:05;22.40;99.90
3846;DHT22;1938;50.812;7.738;2023-06-14T16:05:30;22.60;99.90
3846;DHT22;1938;50.812;7.738;2023-06-14T16:07:56;22.70;99.90